LEAL/ALC METAR and TAF weather

Enter ICAO airport designator
Station Type Date Time Source
LEAL METAR 2020/01/18 13:00 UTC NOAA

LEAL 181300Z 23005KT 190V270 CAVOK 15/07 Q1028 NOSIG


Station Type Date Time Source
LEAL Decoded METAR 2020/01/18 13:00 UTC NOAA

Alicante / El Altet, Spain (LEAL) 38-17N 000-33W 31M
Jan 18, 2020 - 08:00 AM EST / 2020.01.18 1300 UTC
Wind: from the SW (230 degrees) at 6 MPH (5 KT) (direction variable):0
Visibility: greater than 7 mile(s):0
Temperature: 59 F (15 C)
Dew Point: 44 F (7 C)
Relative Humidity: 58%
Pressure (altimeter): 30.36 in. Hg (1028 hPa)
ob: LEAL 181300Z 23005KT 190V270 CAVOK 15/07 Q1028 NOSIG
cycle: 13

Station Type Date Time Source
LEAL TAF 2020/01/18 12:27 UTC NOAA

TAF TAF LEAL 181100Z 1812/1912 31005KT 9999 FEW040 TX14/1813Z TN07/1906Z
BECMG 1812/1814 23010KT
BECMG 1818/1820 VRB04KT
TEMPO 1906/1910 31015KT

Example: see airport list